sensor_id;sensor_type;location;lat;lon;timestamp;temperature;humidity
3794;DHT22;1912;51.358;12.282;2024-01-25T04:52:12;7.20;1.00
3794;DHT22;1912;51.358;12.282;2024-01-25T04:54:38;7.20;1.00
3794;DHT22;1912;51.358;12.282;2024-01-25T04:57:03;7.20;1.00
3794;DHT22;1912;51.358;12.282;2024-01-25T04:59:32;7.20;1.00
3794;DHT22;1912;51.358;12.282;2024-01-25T05:01:59;7.20;1.00
3794;DHT22;1912;51.358;12.282;2024-01-25T05:04:29;7.20;1.00
3794;DHT22;1912;51.358;12.282;2024-01-25T05:06:57;7.20;1.00
3794;DHT22;1912;51.358;12.282;2024-01-25T05:09:22;7.20;1.00
3794;DHT22;1912;51.358;12.282;2024-01-25T05:11:48;7.20;1.00
3794;DHT22;1912;51.358;12.282;2024-01-25T05:14:14;7.20;1.00
3794;DHT22;1912;51.358;12.282;2024-01-25T05:16:40;7.20;1.00
3794;DHT22;1912;51.358;12.282;2024-01-25T05:19:05;7.20;1.00
3794;DHT22;1912;51.358;12.282;2024-01-25T05:21:31;7.20;1.00
3794;DHT22;1912;51.358;12.282;2024-01-25T05:23:57;7.30;1.00
3794;DHT22;1912;51.358;12.282;2024-01-25T05:26:22;7.20;1.00
3794;DHT22;1912;51.358;12.282;2024-01-25T05:28:48;7.20;1.00
3794;DHT22;1912;51.358;12.282;2024-01-25T05:31:14;7.20;1.00
3794;DHT22;1912;51.358;12.282;2024-01-25T05:33:40;7.20;1.00
3794;DHT22;1912;51.358;12.282;2024-01-25T05:36:06;7.30;1.00
3794;DHT22;1912;51.358;12.282;2024-01-25T05:38:32;7.30;1.00
3794;DHT22;1912;51.358;12.282;2024-01-25T05:40:58;7.30;1.00
3794;DHT22;1912;51.358;12.282;2024-01-25T05:43:24;7.30;1.00
3794;DHT22;1912;51.358;12.282;2024-01-25T05:45:50;7.30;1.00
3794;DHT22;1912;51.358;12.282;2024-01-25T05:48:16;7.30;1.00
3794;DHT22;1912;51.358;12.282;2024-01-25T05:50:41;7.30;1.00
3794;DHT22;1912;51.358;12.282;2024-01-25T05:53:07;7.30;1.00
3794;DHT22;1912;51.358;12.282;2024-01-25T05:55:32;7.30;1.00
3794;DHT22;1912;51.358;12.282;2024-01-25T05:57:58;7.40;1.00
3794;DHT22;1912;51.358;12.282;2024-01-25T06:00:24;7.30;1.00
3794;DHT22;1912;51.358;12.282;2024-01-25T06:02:49;7.40;1.00
3794;DHT22;1912;51.358;12.282;2024-01-25T06:05:15;7.30;1.00
3794;DHT22;1912;51.358;12.282;2024-01-25T06:07:41;7.40;1.00
3794;DHT22;1912;51.358;12.282;2024-01-25T06:10:07;7.30;1.00
3794;DHT22;1912;51.358;12.282;2024-01-25T06:12:33;7.30;1.00
3794;DHT22;1912;51.358;12.282;2024-01-25T06:14:58;7.20;1.00
3794;DHT22;1912;51.358;12.282;2024-01-25T06:17:24;7.20;1.00
3794;DHT22;1912;51.358;12.282;2024-01-25T06:19:50;7.20;1.00
3794;DHT22;1912;51.358;12.282;2024-01-25T06:22:15;7.20;1.00
3794;DHT22;1912;51.358;12.282;2024-01-25T06:24:42;7.20;1.00
3794;DHT22;1912;51.358;12.282;2024-01-25T06:27:09;7.10;1.00
3794;DHT22;1912;51.358;12.282;2024-01-25T06:29:35;7.10;1.00
3794;DHT22;1912;51.358;12.282;2024-01-25T06:32:01;7.10;1.00
3794;DHT22;1912;51.358;12.282;2024-01-25T06:34:26;7.10;1.00
3794;DHT22;1912;51.358;12.282;2024-01-25T06:36:52;7.10;1.00
3794;DHT22;1912;51.358;12.282;2024-01-25T06:39:18;7.10;1.00
3794;DHT22;1912;51.358;12.282;2024-01-25T06:41:43;7.10;1.00
3794;DHT22;1912;51.358;12.282;2024-01-25T06:44:09;7.10;1.00
3794;DHT22;1912;51.358;12.282;2024-01-25T06:46:35;7.10;1.00
3794;DHT22;1912;51.358;12.282;2024-01-25T06:49:00;7.10;1.00
3794;DHT22;1912;51.358;12.282;2024-01-25T06:51:26;7.10;1.00
3794;DHT22;1912;51.358;12.282;2024-01-25T06:53:52;7.10;1.00
3794;DHT22;1912;51.358;12.282;2024-01-25T06:56:17;7.10;1.00
3794;DHT22;1912;51.358;12.282;2024-01-25T06:58:43;7.10;1.00
3794;DHT22;1912;51.358;12.282;2024-01-25T07:01:09;7.10;1.00
3794;DHT22;1912;51.358;12.282;2024-01-25T07:03:35;7.10;1.00
3794;DHT22;1912;51.358;12.282;2024-01-25T07:06:00;7.10;1.00
3794;DHT22;1912;51.358;12.282;2024-01-25T07:08:26;7.10;1.00
3794;DHT22;1912;51.358;12.282;2024-01-25T07:10:51;7.00;1.00
3794;DHT22;1912;51.358;12.282;2024-01-25T07:13:17;7.10;1.00
3794;DHT22;1912;51.358;12.282;2024-01-25T07:15:43;7.10;1.00
3794;DHT22;1912;51.358;12.282;2024-01-25T07:18:08;7.10;1.00
3794;DHT22;1912;51.358;12.282;2024-01-25T07:20:34;7.10;1.00
3794;DHT22;1912;51.358;12.282;2024-01-25T07:23:00;7.10;1.00
3794;DHT22;1912;51.358;12.282;2024-01-25T07:25:26;7.10;1.00
3794;DHT22;1912;51.358;12.282;2024-01-25T07:27:52;7.10;1.00
3794;DHT22;1912;51.358;12.282;2024-01-25T07:30:17;7.10;1.00
3794;DHT22;1912;51.358;12.282;2024-01-25T07:32:43;7.10;1.00
3794;DHT22;1912;51.358;12.282;2024-01-25T07:35:11;7.00;1.00
3794;DHT22;1912;51.358;12.282;2024-01-25T07:37:38;7.10;1.00
3794;DHT22;1912;51.358;12.282;2024-01-25T07:40:06;7.20;1.00
3794;DHT22;1912;51.358;12.282;2024-01-25T07:42:33;7.20;1.00
3794;DHT22;1912;51.358;12.282;2024-01-25T07:44:58;7.10;1.00
3794;DHT22;1912;51.358;12.282;2024-01-25T07:47:24;7.10;1.00
3794;DHT22;1912;51.358;12.282;2024-01-25T07:49:50;7.10;1.00
3794;DHT22;1912;51.358;12.282;2024-01-25T07:52:15;7.10;1.00
3794;DHT22;1912;51.358;12.282;2024-01-25T07:54:41;7.10;1.00
3794;DHT22;1912;51.358;12.282;2024-01-25T07:57:07;7.00;1.00
3794;DHT22;1912;51.358;12.282;2024-01-25T07:59:32;7.00;1.00
3794;DHT22;1912;51.358;12.282;2024-01-25T08:01:58;7.00;1.00
3794;DHT22;1912;51.358;12.282;2024-01-25T08:04:24;7.00;1.00
3794;DHT22;1912;51.358;12.282;2024-01-25T08:06:49;7.00;1.00
3794;DHT22;1912;51.358;12.282;2024-01-25T08:09:16;7.00;1.00
3794;DHT22;1912;51.358;12.282;2024-01-25T08:11:42;7.00;1.00
3794;DHT22;1912;51.358;12.282;2024-01-25T08:14:08;7.00;1.00
3794;DHT22;1912;51.358;12.282;2024-01-25T08:16:33;7.00;1.00
3794;DHT22;1912;51.358;12.282;2024-01-25T08:19:00;7.10;1.00
3794;DHT22;1912;51.358;12.282;2024-01-25T08:21:26;7.10;1.00
3794;DHT22;1912;51.358;12.282;2024-01-25T08:23:52;7.10;1.00
3794;DHT22;1912;51.358;12.282;2024-01-25T08:26:17;7.10;1.00
3794;DHT22;1912;51.358;12.282;2024-01-25T08:28:43;7.10;1.00
3794;DHT22;1912;51.358;12.282;2024-01-25T08:31:10;7.00;1.00
3794;DHT22;1912;51.358;12.282;2024-01-25T08:33:36;7.10;1.00
3794;DHT22;1912;51.358;12.282;2024-01-25T08:36:02;7.10;1.00
3794;DHT22;1912;51.358;12.282;2024-01-25T08:38:28;7.10;1.00
3794;DHT22;1912;51.358;12.282;2024-01-25T08:40:54;7.10;1.00
3794;DHT22;1912;51.358;12.282;2024-01-25T08:43:19;7.10;1.00
3794;DHT22;1912;51.358;12.282;2024-01-25T08:45:45;7.10;1.00
3794;DHT22;1912;51.358;12.282;2024-01-25T08:48:11;7.10;1.00
3794;DHT22;1912;51.358;12.282;2024-01-25T08:50:39;7.20;1.00
3794;DHT22;1912;51.358;12.282;2024-01-25T08:53:04;7.10;1.00
3794;DHT22;1912;51.358;12.282;2024-01-25T08:55:30;7.20;1.00
3794;DHT22;1912;51.358;12.282;2024-01-25T08:57:56;7.20;1.00
3794;DHT22;1912;51.358;12.282;2024-01-25T09:00:22;7.20;1.00
3794;DHT22;1912;51.358;12.282;2024-01-25T09:02:48;7.30;1.00
3794;DHT22;1912;51.358;12.282;2024-01-25T09:05:13;7.30;1.00
3794;DHT22;1912;51.358;12.282;2024-01-25T09:07:40;7.30;1.00
3794;DHT22;1912;51.358;12.282;2024-01-25T09:10:07;7.40;1.00
3794;DHT22;1912;51.358;12.282;2024-01-25T09:12:34;7.40;1.00
3794;DHT22;1912;51.358;12.282;2024-01-25T09:15:00;7.50;1.00
3794;DHT22;1912;51.358;12.282;2024-01-25T09:17:26;7.50;1.00
3794;DHT22;1912;51.358;12.282;2024-01-25T09:19:52;7.70;1.00
3794;DHT22;1912;51.358;12.282;2024-01-25T09:22:18;7.90;1.00
3794;DHT22;1912;51.358;12.282;2024-01-25T09:24:47;7.90;1.00
3794;DHT22;1912;51.358;12.282;2024-01-25T09:27:13;7.90;1.00
3794;DHT22;1912;51.358;12.282;2024-01-25T09:29:39;7.80;1.00
3794;DHT22;1912;51.358;12.282;2024-01-25T09:32:06;7.60;1.00
3794;DHT22;1912;51.358;12.282;2024-01-25T09:34:34;7.60;1.00
3794;DHT22;1912;51.358;12.282;2024-01-25T09:37:01;7.70;1.00
3794;DHT22;1912;51.358;12.282;2024-01-25T09:39:28;7.70;1.00
3794;DHT22;1912;51.358;12.282;2024-01-25T09:41:53;7.90;1.00
3794;DHT22;1912;51.358;12.282;2024-01-25T09:44:19;8.00;1.00
3794;DHT22;1912;51.358;12.282;2024-01-25T09:46:45;8.00;1.00
3794;DHT22;1912;51.358;12.282;2024-01-25T09:49:11;8.00;1.00
3794;DHT22;1912;51.358;12.282;2024-01-25T09:51:41;8.00;1.00
3794;DHT22;1912;51.358;12.282;2024-01-25T09:54:08;8.10;1.00
3794;DHT22;1912;51.358;12.282;2024-01-25T09:56:34;8.20;1.00
3794;DHT22;1912;51.358;12.282;2024-01-25T09:59:01;8.10;1.00
3794;DHT22;1912;51.358;12.282;2024-01-25T10:01:27;8.10;1.00
3794;DHT22;1912;51.358;12.282;2024-01-25T10:03:53;8.20;1.00
3794;DHT22;1912;51.358;12.282;2024-01-25T10:06:21;8.40;1.00
3794;DHT22;1912;51.358;12.282;2024-01-25T10:08:47;8.50;1.00
3794;DHT22;1912;51.358;12.282;2024-01-25T10:11:13;8.50;1.00
3794;DHT22;1912;51.358;12.282;2024-01-25T10:13:44;8.40;1.00
3794;DHT22;1912;51.358;12.282;2024-01-25T10:16:13;8.50;1.00
3794;DHT22;1912;51.358;12.282;2024-01-25T10:18:41;8.60;1.00
3794;DHT22;1912;51.358;12.282;2024-01-25T10:21:12;8.60;1.00
3794;DHT22;1912;51.358;12.282;2024-01-25T10:23:39;8.50;1.00
3794;DHT22;1912;51.358;12.282;2024-01-25T10:26:05;8.60;1.00
3794;DHT22;1912;51.358;12.282;2024-01-25T10:28:33;8.70;1.00
3794;DHT22;1912;51.358;12.282;2024-01-25T10:31:01;8.60;1.00
3794;DHT22;1912;51.358;12.282;2024-01-25T10:33:29;8.70;1.00
3794;DHT22;1912;51.358;12.282;2024-01-25T10:35:56;8.70;1.00
3794;DHT22;1912;51.358;12.282;2024-01-25T10:38:31;8.80;1.00
3794;DHT22;1912;51.358;12.282;2024-01-25T10:41:04;8.80;1.00
3794;DHT22;1912;51.358;12.282;2024-01-25T10:43:31;8.70;1.00
3794;DHT22;1912;51.358;12.282;2024-01-25T10:45:57;8.70;1.00
3794;DHT22;1912;51.358;12.282;2024-01-25T10:48:27;8.70;1.00
3794;DHT22;1912;51.358;12.282;2024-01-25T10:50:55;8.80;1.00
3794;DHT22;1912;51.358;12.282;2024-01-25T10:53:21;8.90;1.00
3794;DHT22;1912;51.358;12.282;2024-01-25T10:55:48;9.00;1.00
3794;DHT22;1912;51.358;12.282;2024-01-25T10:58:15;9.10;1.00
3794;DHT22;1912;51.358;12.282;2024-01-25T11:00:49;9.20;1.00
3794;DHT22;1912;51.358;12.282;2024-01-25T11:03:18;9.10;1.00
3794;DHT22;1912;51.358;12.282;2024-01-25T11:05:44;9.20;1.00
3794;DHT22;1912;51.358;12.282;2024-01-25T11:08:18;9.20;1.00
3794;DHT22;1912;51.358;12.282;2024-01-25T11:10:50;9.20;1.00
3794;DHT22;1912;51.358;12.282;2024-01-25T11:13:16;9.00;1.00
3794;DHT22;1912;51.358;12.282;2024-01-25T11:15:42;8.90;1.00
3794;DHT22;1912;51.358;12.282;2024-01-25T11:18:08;9.00;1.00
3794;DHT22;1912;51.358;12.282;2024-01-25T11:20:35;8.90;1.00
3794;DHT22;1912;51.358;12.282;2024-01-25T11:23:03;8.70;1.00
3794;DHT22;1912;51.358;12.282;2024-01-25T11:25:35;8.70;1.00
3794;DHT22;1912;51.358;12.282;2024-01-25T11:28:03;8.60;1.00
3794;DHT22;1912;51.358;12.282;2024-01-25T11:30:32;8.70;1.00
3794;DHT22;1912;51.358;12.282;2024-01-25T11:32:59;8.70;1.00
3794;DHT22;1912;51.358;12.282;2024-01-25T11:35:25;8.80;1.00
3794;DHT22;1912;51.358;12.282;2024-01-25T11:37:51;9.10;1.00
3794;DHT22;1912;51.358;12.282;2024-01-25T11:40:17;9.10;1.00
3794;DHT22;1912;51.358;12.282;2024-01-25T11:42:45;9.00;1.00
3794;DHT22;1912;51.358;12.282;2024-01-25T11:45:13;9.10;1.00
3794;DHT22;1912;51.358;12.282;2024-01-25T11:47:41;8.90;1.00
3794;DHT22;1912;51.358;12.282;2024-01-25T11:50:08;8.80;1.00
3794;DHT22;1912;51.358;12.282;2024-01-25T11:52:35;8.80;1.00
3794;DHT22;1912;51.358;12.282;2024-01-25T11:55:06;8.80;1.00
3794;DHT22;1912;51.358;12.282;2024-01-25T11:57:34;8.70;1.00
3794;DHT22;1912;51.358;12.282;2024-01-25T12:00:03;8.70;1.00
3794;DHT22;1912;51.358;12.282;2024-01-25T12:02:30;8.80;1.00
3794;DHT22;1912;51.358;12.282;2024-01-25T12:04:57;8.80;1.00
3794;DHT22;1912;51.358;12.282;2024-01-25T12:07:22;8.80;1.00
3794;DHT22;1912;51.358;12.282;2024-01-25T12:12:31;8.80;1.00
3794;DHT22;1912;51.358;12.282;2024-01-25T12:15:01;8.80;1.00
3794;DHT22;1912;51.358;12.282;2024-01-25T12:17:29;8.80;1.00
3794;DHT22;1912;51.358;12.282;2024-01-25T12:19:58;8.90;1.00
3794;DHT22;1912;51.358;12.282;2024-01-25T12:22:27;8.70;1.00
3794;DHT22;1912;51.358;12.282;2024-01-25T12:24:56;8.70;1.00
3794;DHT22;1912;51.358;12.282;2024-01-25T12:27:23;8.70;1.00
3794;DHT22;1912;51.358;12.282;2024-01-25T12:29:53;8.70;1.00
3794;DHT22;1912;51.358;12.282;2024-01-25T12:32:20;8.70;1.00
3794;DHT22;1912;51.358;12.282;2024-01-25T12:35:00;8.60;1.00
3794;DHT22;1912;51.358;12.282;2024-01-25T12:37:29;8.60;1.00
3794;DHT22;1912;51.358;12.282;2024-01-25T12:39:55;8.50;1.00
3794;DHT22;1912;51.358;12.282;2024-01-25T12:42:21;8.50;1.00
3794;DHT22;1912;51.358;12.282;2024-01-25T12:44:47;8.50;1.00
3794;DHT22;1912;51.358;12.282;2024-01-25T12:47:14;8.50;1.00
3794;DHT22;1912;51.358;12.282;2024-01-25T12:49:41;8.60;1.00
3794;DHT22;1912;51.358;12.282;2024-01-25T12:52:11;8.60;1.00
3794;DHT22;1912;51.358;12.282;2024-01-25T12:54:39;8.60;1.00
3794;DHT22;1912;51.358;12.282;2024-01-25T12:57:05;8.60;1.00
3794;DHT22;1912;51.358;12.282;2024-01-25T12:59:32;8.70;1.00
3794;DHT22;1912;51.358;12.282;2024-01-25T13:01:58;8.60;1.00
3794;DHT22;1912;51.358;12.282;2024-01-25T13:04:24;8.80;1.00
3794;DHT22;1912;51.358;12.282;2024-01-25T13:06:52;8.70;1.00
3794;DHT22;1912;51.358;12.282;2024-01-25T13:09:22;8.70;1.00
3794;DHT22;1912;51.358;12.282;2024-01-25T13:11:48;8.70;1.00
3794;DHT22;1912;51.358;12.282;2024-01-25T13:14:14;8.70;1.00
3794;DHT22;1912;51.358;12.282;2024-01-25T13:16:40;8.80;1.00
3794;DHT22;1912;51.358;12.282;2024-01-25T13:19:06;8.80;1.00
3794;DHT22;1912;51.358;12.282;2024-01-25T13:21:32;8.70;1.00
3794;DHT22;1912;51.358;12.282;2024-01-25T13:23:59;8.70;1.00
3794;DHT22;1912;51.358;12.282;2024-01-25T13:26:25;8.80;1.00
3794;DHT22;1912;51.358;12.282;2024-01-25T13:28:50;8.70;1.00
3794;DHT22;1912;51.358;12.282;2024-01-25T13:31:16;8.70;1.00
3794;DHT22;1912;51.358;12.282;2024-01-25T13:33:42;8.70;1.00
3794;DHT22;1912;51.358;12.282;2024-01-25T13:36:07;8.70;1.00
3794;DHT22;1912;51.358;12.282;2024-01-25T13:38:36;8.80;1.00
3794;DHT22;1912;51.358;12.282;2024-01-25T13:41:01;8.80;1.00
3794;DHT22;1912;51.358;12.282;2024-01-25T13:43:27;8.70;1.00
3794;DHT22;1912;51.358;12.282;2024-01-25T13:45:54;8.50;1.00
3794;DHT22;1912;51.358;12.282;2024-01-25T13:48:19;8.50;1.00
3794;DHT22;1912;51.358;12.282;2024-01-25T13:50:45;8.40;1.00
3794;DHT22;1912;51.358;12.282;2024-01-25T13:53:11;8.40;1.00
3794;DHT22;1912;51.358;12.282;2024-01-25T13:55:36;8.30;1.00
3794;DHT22;1912;51.358;12.282;2024-01-25T13:58:02;8.20;1.00
3794;DHT22;1912;51.358;12.282;2024-01-25T14:00:28;8.10;1.00
3794;DHT22;1912;51.358;12.282;2024-01-25T14:02:54;8.10;1.00
3794;DHT22;1912;51.358;12.282;2024-01-25T14:05:19;8.10;1.00
3794;DHT22;1912;51.358;12.282;2024-01-25T14:07:45;8.00;1.00
3794;DHT22;1912;51.358;12.282;2024-01-25T14:10:11;7.90;1.00
3794;DHT22;1912;51.358;12.282;2024-01-25T14:12:36;7.90;1.00
3794;DHT22;1912;51.358;12.282;2024-01-25T14:15:02;7.90;1.00
3794;DHT22;1912;51.358;12.282;2024-01-25T14:17:29;7.80;1.00
3794;DHT22;1912;51.358;12.282;2024-01-25T14:19:54;7.70;1.00
3794;DHT22;1912;51.358;12.282;2024-01-25T14:22:20;7.70;1.00
3794;DHT22;1912;51.358;12.282;2024-01-25T14:24:47;7.70;1.00
3794;DHT22;1912;51.358;12.282;2024-01-25T14:27:12;7.60;1.00
3794;DHT22;1912;51.358;12.282;2024-01-25T14:29:38;7.60;1.00
3794;DHT22;1912;51.358;12.282;2024-01-25T14:32:04;7.60;1.00
3794;DHT22;1912;51.358;12.282;2024-01-25T14:34:30;7.60;1.00
3794;DHT22;1912;51.358;12.282;2024-01-25T14:36:55;7.60;1.00
3794;DHT22;1912;51.358;12.282;2024-01-25T14:39:21;7.50;1.00
3794;DHT22;1912;51.358;12.282;2024-01-25T14:41:47;7.50;1.00
3794;DHT22;1912;51.358;12.282;2024-01-25T14:44:13;7.50;1.00
3794;DHT22;1912;51.358;12.282;2024-01-25T14:46:38;7.40;1.00
3794;DHT22;1912;51.358;12.282;2024-01-25T14:49:04;7.40;1.00
3794;DHT22;1912;51.358;12.282;2024-01-25T14:51:30;7.40;1.00
3794;DHT22;1912;51.358;12.282;2024-01-25T14:53:56;7.40;1.00
3794;DHT22;1912;51.358;12.282;2024-01-25T14:56:22;7.40;1.00
3794;DHT22;1912;51.358;12.282;2024-01-25T14:58:48;7.30;1.00
3794;DHT22;1912;51.358;12.282;2024-01-25T15:01:14;7.30;1.00
3794;DHT22;1912;51.358;12.282;2024-01-25T15:03:45;7.20;1.00
3794;DHT22;1912;51.358;12.282;2024-01-25T15:06:11;7.20;1.00
3794;DHT22;1912;51.358;12.282;2024-01-25T15:08:37;7.20;1.00
3794;DHT22;1912;51.358;12.282;2024-01-25T15:11:03;7.20;1.00
3794;DHT22;1912;51.358;12.282;2024-01-25T15:13:29;7.10;1.00
3794;DHT22;1912;51.358;12.282;2024-01-25T15:15:55;7.10;1.00
3794;DHT22;1912;51.358;12.282;2024-01-25T15:18:21;7.10;1.00
3794;DHT22;1912;51.358;12.282;2024-01-25T15:20:47;7.00;1.00
3794;DHT22;1912;51.358;12.282;2024-01-25T15:23:13;7.00;1.00
3794;DHT22;1912;51.358;12.282;2024-01-25T15:25:39;7.00;1.00
3794;DHT22;1912;51.358;12.282;2024-01-25T15:28:04;6.90;1.00
3794;DHT22;1912;51.358;12.282;2024-01-25T15:30:30;6.90;1.00
3794;DHT22;1912;51.358;12.282;2024-01-25T15:32:56;6.90;1.00
3794;DHT22;1912;51.358;12.282;2024-01-25T15:35:23;6.80;1.00
3794;DHT22;1912;51.358;12.282;2024-01-25T15:37:49;6.90;1.00
3794;DHT22;1912;51.358;12.282;2024-01-25T15:40:14;6.80;1.00
3794;DHT22;1912;51.358;12.282;2024-01-25T15:42:42;6.80;1.00
3794;DHT22;1912;51.358;12.282;2024-01-25T15:45:09;6.80;1.00
3794;DHT22;1912;51.358;12.282;2024-01-25T15:47:36;6.70;1.00
3794;DHT22;1912;51.358;12.282;2024-01-25T15:50:02;6.70;1.00
3794;DHT22;1912;51.358;12.282;2024-01-25T15:52:31;6.70;1.00
3794;DHT22;1912;51.358;12.282;2024-01-25T15:54:59;6.60;1.00
3794;DHT22;1912;51.358;12.282;2024-01-25T15:57:25;6.60;1.00
3794;DHT22;1912;51.358;12.282;2024-01-25T15:59:51;6.60;1.00
3794;DHT22;1912;51.358;12.282;2024-01-25T16:02:17;6.60;1.00
3794;DHT22;1912;51.358;12.282;2024-01-25T16:04:43;6.50;1.00
3794;DHT22;1912;51.358;12.282;2024-01-25T16:07:09;6.50;1.00
3794;DHT22;1912;51.358;12.282;2024-01-25T16:09:36;6.50;1.00
3794;DHT22;1912;51.358;12.282;2024-01-25T16:12:03;6.50;1.00
3794;DHT22;1912;51.358;12.282;2024-01-25T16:14:32;6.50;1.00
3794;DHT22;1912;51.358;12.282;2024-01-25T16:16:58;6.50;1.00
3794;DHT22;1912;51.358;12.282;2024-01-25T16:19:24;6.50;1.00
3794;DHT22;1912;51.358;12.282;2024-01-25T16:21:49;6.40;1.00
3794;DHT22;1912;51.358;12.282;2024-01-25T16:24:15;6.40;1.00
3794;DHT22;1912;51.358;12.282;2024-01-25T16:26:41;6.30;1.00
3794;DHT22;1912;51.358;12.282;2024-01-25T16:29:07;6.30;1.00
3794;DHT22;1912;51.358;12.282;2024-01-25T16:31:32;6.30;1.00
3794;DHT22;1912;51.358;12.282;2024-01-25T16:33:58;6.30;1.00
3794;DHT22;1912;51.358;12.282;2024-01-25T16:36:23;6.30;1.00
3794;DHT22;1912;51.358;12.282;2024-01-25T16:38:49;6.20;1.00
3794;DHT22;1912;51.358;12.282;2024-01-25T16:41:15;6.20;1.00
3794;DHT22;1912;51.358;12.282;2024-01-25T16:43:41;6.20;1.00
3794;DHT22;1912;51.358;12.282;2024-01-25T16:46:07;6.20;1.00
3794;DHT22;1912;51.358;12.282;2024-01-25T16:48:32;6.30;1.00
3794;DHT22;1912;51.358;12.282;2024-01-25T16:50:58;6.30;1.00
3794;DHT22;1912;51.358;12.282;2024-01-25T16:53:23;6.30;1.00
3794;DHT22;1912;51.358;12.282;2024-01-25T16:55:50;6.30;1.00
3794;DHT22;1912;51.358;12.282;2024-01-25T16:58:16;6.30;1.00
3794;DHT22;1912;51.358;12.282;2024-01-25T17:00:42;6.20;1.00
3794;DHT22;1912;51.358;12.282;2024-01-25T17:03:07;6.20;1.00
3794;DHT22;1912;51.358;12.282;2024-01-25T17:05:33;6.10;1.00
3794;DHT22;1912;51.358;12.282;2024-01-25T17:07:59;6.10;1.00
3794;DHT22;1912;51.358;12.282;2024-01-25T17:10:24;6.00;1.00
3794;DHT22;1912;51.358;12.282;2024-01-25T17:12:51;6.00;1.00
3794;DHT22;1912;51.358;12.282;2024-01-25T17:15:17;5.90;1.00
3794;DHT22;1912;51.358;12.282;2024-01-25T17:17:42;5.90;1.00
3794;DHT22;1912;51.358;12.282;2024-01-25T17:20:08;5.90;1.00
3794;DHT22;1912;51.358;12.282;2024-01-25T17:22:34;5.80;1.00
3794;DHT22;1912;51.358;12.282;2024-01-25T17:25:00;5.80;1.00
3794;DHT22;1912;51.358;12.282;2024-01-25T17:27:26;5.80;1.00
3794;DHT22;1912;51.358;12.282;2024-01-25T17:29:51;5.70;1.00
3794;DHT22;1912;51.358;12.282;2024-01-25T17:32:17;5.70;1.00
3794;DHT22;1912;51.358;12.282;2024-01-25T17:34:43;5.70;1.00
3794;DHT22;1912;51.358;12.282;2024-01-25T17:37:08;5.70;1.00
3794;DHT22;1912;51.358;12.282;2024-01-25T17:39:34;5.60;1.00
3794;DHT22;1912;51.358;12.282;2024-01-25T17:42:00;5.60;1.00
3794;DHT22;1912;51.358;12.282;2024-01-25T17:44:26;5.60;1.00
3794;DHT22;1912;51.358;12.282;2024-01-25T17:46:51;5.60;1.00
3794;DHT22;1912;51.358;12.282;2024-01-25T17:49:17;5.60;1.00
3794;DHT22;1912;51.358;12.282;2024-01-25T17:51:42;5.50;1.00
3794;DHT22;1912;51.358;12.282;2024-01-25T17:54:10;5.40;1.00
3794;DHT22;1912;51.358;12.282;2024-01-25T17:56:39;5.40;1.00
3794;DHT22;1912;51.358;12.282;2024-01-25T17:59:06;5.40;1.00
3794;DHT22;1912;51.358;12.282;2024-01-25T18:01:33;5.30;1.00
3794;DHT22;1912;51.358;12.282;2024-01-25T18:03:59;5.20;1.00
3794;DHT22;1912;51.358;12.282;2024-01-25T18:06:24;5.20;1.00
3794;DHT22;1912;51.358;12.282;2024-01-25T18:08:50;5.10;1.00
3794;DHT22;1912;51.358;12.282;2024-01-25T18:11:16;5.10;1.00
3794;DHT22;1912;51.358;12.282;2024-01-25T18:13:41;5.10;1.00
3794;DHT22;1912;51.358;12.282;2024-01-25T18:16:10;5.00;1.00
3794;DHT22;1912;51.358;12.282;2024-01-25T18:18:36;5.00;1.00
3794;DHT22;1912;51.358;12.282;2024-01-25T18:21:02;5.00;1.00
3794;DHT22;1912;51.358;12.282;2024-01-25T18:23:27;5.00;1.00
3794;DHT22;1912;51.358;12.282;2024-01-25T18:25:54;5.00;1.00
3794;DHT22;1912;51.358;12.282;2024-01-25T18:28:20;5.00;1.00
3794;DHT22;1912;51.358;12.282;2024-01-25T18:30:46;4.90;1.00
3794;DHT22;1912;51.358;12.282;2024-01-25T18:33:12;4.90;1.00
3794;DHT22;1912;51.358;12.282;2024-01-25T18:35:38;4.80;1.00
3794;DHT22;1912;51.358;12.282;2024-01-25T18:38:03;4.80;1.00
3794;DHT22;1912;51.358;12.282;2024-01-25T18:40:29;4.80;1.00
3794;DHT22;1912;51.358;12.282;2024-01-25T18:42:55;4.90;1.00
3794;DHT22;1912;51.358;12.282;2024-01-25T18:45:20;4.80;1.00
3794;DHT22;1912;51.358;12.282;2024-01-25T18:47:47;4.80;1.00
3794;DHT22;1912;51.358;12.282;2024-01-25T18:50:12;4.80;1.00
3794;DHT22;1912;51.358;12.282;2024-01-25T18:52:38;4.80;1.00
3794;DHT22;1912;51.358;12.282;2024-01-25T18:55:04;4.70;1.00
3794;DHT22;1912;51.358;12.282;2024-01-25T18:57:30;4.70;1.00
3794;DHT22;1912;51.358;12.282;2024-01-25T18:59:57;4.60;1.00
3794;DHT22;1912;51.358;12.282;2024-01-25T19:02:23;4.60;1.00
3794;DHT22;1912;51.358;12.282;2024-01-25T19:04:49;4.50;1.00
3794;DHT22;1912;51.358;12.282;2024-01-25T19:07:15;4.50;1.00
3794;DHT22;1912;51.358;12.282;2024-01-25T19:09:42;4.50;1.00
3794;DHT22;1912;51.358;12.282;2024-01-25T19:12:07;4.50;1.00
3794;DHT22;1912;51.358;12.282;2024-01-25T19:14:33;4.50;1.00
3794;DHT22;1912;51.358;12.282;2024-01-25T19:16:59;4.50;1.00
3794;DHT22;1912;51.358;12.282;2024-01-25T19:19:26;4.50;1.00
3794;DHT22;1912;51.358;12.282;2024-01-25T19:21:51;4.40;1.00
3794;DHT22;1912;51.358;12.282;2024-01-25T19:24:17;4.30;1.00
3794;DHT22;1912;51.358;12.282;2024-01-25T19:26:44;4.30;1.00
3794;DHT22;1912;51.358;12.282;2024-01-25T19:29:13;4.30;1.00
3794;DHT22;1912;51.358;12.282;2024-01-25T19:31:38;4.20;1.00
3794;DHT22;1912;51.358;12.282;2024-01-25T19:34:04;4.20;1.00
3794;DHT22;1912;51.358;12.282;2024-01-25T19:36:30;4.20;1.00
3794;DHT22;1912;51.358;12.282;2024-01-25T19:38:55;4.20;1.00
3794;DHT22;1912;51.358;12.282;2024-01-25T19:41:21;4.10;1.00
3794;DHT22;1912;51.358;12.282;2024-01-25T19:43:47;4.00;1.00
3794;DHT22;1912;51.358;12.282;2024-01-25T19:46:13;4.00;1.00
3794;DHT22;1912;51.358;12.282;2024-01-25T19:48:38;3.90;1.00
3794;DHT22;1912;51.358;12.282;2024-01-25T19:51:04;3.80;1.00
3794;DHT22;1912;51.358;12.282;2024-01-25T19:53:30;3.70;1.00
3794;DHT22;1912;51.358;12.282;2024-01-25T19:55:55;3.60;1.00
3794;DHT22;1912;51.358;12.282;2024-01-25T19:58:21;3.50;1.00
3794;DHT22;1912;51.358;12.282;2024-01-25T20:00:52;3.40;1.00
3794;DHT22;1912;51.358;12.282;2024-01-25T20:03:19;3.40;1.00
3794;DHT22;1912;51.358;12.282;2024-01-25T20:05:46;3.40;1.00
3794;DHT22;1912;51.358;12.282;2024-01-25T20:08:12;3.40;1.00
3794;DHT22;1912;51.358;12.282;2024-01-25T20:10:38;3.40;1.00
3794;DHT22;1912;51.358;12.282;2024-01-25T20:13:04;3.40;1.00
3794;DHT22;1912;51.358;12.282;2024-01-25T20:15:30;3.40;1.00
3794;DHT22;1912;51.358;12.282;2024-01-25T20:17:56;3.40;1.00
3794;DHT22;1912;51.358;12.282;2024-01-25T20:20:21;3.30;1.00
3794;DHT22;1912;51.358;12.282;2024-01-25T20:22:49;3.30;1.00
3794;DHT22;1912;51.358;12.282;2024-01-25T20:25:15;3.20;1.00
3794;DHT22;1912;51.358;12.282;2024-01-25T20:27:41;3.20;1.00
3794;DHT22;1912;51.358;12.282;2024-01-25T20:30:07;3.20;1.00
3794;DHT22;1912;51.358;12.282;2024-01-25T20:32:33;3.20;1.00
3794;DHT22;1912;51.358;12.282;2024-01-25T20:34:58;3.10;1.00
3794;DHT22;1912;51.358;12.282;2024-01-25T20:37:24;2.90;1.00
3794;DHT22;1912;51.358;12.282;2024-01-25T20:39:51;2.80;1.00
3794;DHT22;1912;51.358;12.282;2024-01-25T20:42:16;2.80;1.00
3794;DHT22;1912;51.358;12.282;2024-01-25T20:44:42;2.80;1.00
3794;DHT22;1912;51.358;12.282;2024-01-25T20:47:08;2.80;1.00
3794;DHT22;1912;51.358;12.282;2024-01-25T20:49:34;2.80;1.00
3794;DHT22;1912;51.358;12.282;2024-01-25T20:51:59;2.80;1.00
3794;DHT22;1912;51.358;12.282;2024-01-25T20:54:25;2.80;1.00
3794;DHT22;1912;51.358;12.282;2024-01-25T20:56:51;2.70;1.00
3794;DHT22;1912;51.358;12.282;2024-01-25T20:59:16;2.70;1.00
3794;DHT22;1912;51.358;12.282;2024-01-25T21:01:42;2.70;1.00
3794;DHT22;1912;51.358;12.282;2024-01-25T21:04:08;2.70;1.00